Terminal Aerodrome Forecast
Issued by NWS Kansas City/Pleasant Hill, MO

Home | Current Version | Previous Version | Text Only | Print | Product List | Glossary On
Versions: 1 2 3 4 5 6 7 8 9 10 11 12 13
000
FTUS43 KEAX 250500
TAFMCI
TAF
KMCI 250520Z 2506/2606 17013KT P6SM BKN200
     FM251400 20018G26KT P6SM SCT200
     FM260000 19012KT P6SM SCT200=

USA.gov is the U.S. government's official web portal to all federal, state and local government web resources and services.